Lorton Lick, West Virginia
Current Conditions -  °F | °C
As of 9:52 PM on Friday 28 Nov 2014 (Local Time) from KBLF Reporting Station
Clear Clear  
Wind Chill: -3°   Ceiling: Unl
Heat Index: -3°   Visibility: 10mi
Dew Point: -10°   Wind: 0mph
Humidity: 58%   Direction: NA
Pressure: 30.16"   Gusts: NA
Location:  37.2994°N, 81.226°W
Report Text: KBLF 290252Z AUTO 00000KT 10SM CLR M03/M10 A3016 RMK AO2 SLP237 T10281100 56010 $
Loading
Personal Weather Stations






























Interactive Weather Map New forecast layout! Learn more

10-Day Weather Forecast

Advertisements
Track Severe Weather on mobile